createdAt,value
2018-07-19T00:00:37.347Z,858.33
2018-07-19T00:01:37.229Z,858.33
2018-07-19T00:02:37.108Z,858.30
2018-07-19T00:03:36.983Z,858.32
2018-07-19T00:04:36.865Z,858.35
2018-07-19T00:05:36.740Z,858.33
2018-07-19T00:06:36.619Z,858.36
2018-07-19T00:07:36.499Z,858.36
2018-07-19T00:08:36.375Z,858.36
2018-07-19T00:09:36.250Z,858.38
2018-07-19T00:10:36.137Z,858.38
2018-07-19T00:11:36.010Z,858.40
2018-07-19T00:12:35.886Z,858.41
2018-07-19T00:13:35.764Z,858.43
2018-07-19T00:14:35.643Z,858.39
2018-07-19T00:15:35.518Z,858.39
2018-07-19T00:16:35.405Z,858.43
2018-07-19T00:17:35.276Z,858.44
2018-07-19T00:18:35.153Z,858.44
2018-07-19T00:19:35.031Z,858.46
2018-07-19T00:20:34.911Z,858.48
2018-07-19T00:21:34.789Z,858.48
2018-07-19T00:22:34.668Z,858.47
2018-07-19T00:23:34.544Z,858.52
2018-07-19T00:24:34.424Z,858.52
2018-07-19T00:25:34.298Z,858.46
2018-07-19T00:26:34.177Z,858.48
2018-07-19T00:27:34.058Z,858.48
2018-07-19T00:28:33.938Z,858.48
2018-07-19T00:29:33.810Z,858.49
2018-07-19T00:30:33.690Z,858.47
2018-07-19T00:31:33.568Z,858.47
2018-07-19T00:32:33.444Z,858.46
2018-07-19T00:33:33.323Z,858.51
2018-07-19T00:34:33.205Z,858.48
2018-07-19T00:35:33.081Z,858.51
2018-07-19T00:36:32.959Z,858.49
2018-07-19T00:37:32.838Z,858.47
2018-07-19T00:38:32.712Z,858.44
2018-07-19T00:39:32.590Z,858.46
2018-07-19T00:40:32.468Z,858.45
2018-07-19T00:41:32.347Z,858.49
2018-07-19T00:42:32.226Z,858.50
2018-07-19T00:43:32.112Z,858.51
2018-07-19T00:44:31.982Z,858.53
2018-07-19T00:45:31.858Z,858.51
2018-07-19T00:46:31.738Z,858.51
2018-07-19T00:47:31.616Z,858.50
2018-07-19T00:48:31.492Z,858.48
2018-07-19T00:49:31.372Z,858.44
2018-07-19T00:50:31.252Z,858.44
2018-07-19T00:51:31.125Z,858.45
2018-07-19T00:52:31.006Z,858.43
2018-07-19T00:53:32.730Z,858.41
2018-07-19T00:54:30.762Z,858.46
2018-07-19T00:55:30.638Z,858.45
2018-07-19T00:56:30.519Z,858.46
2018-07-19T00:57:30.395Z,858.46
2018-07-19T00:58:30.272Z,858.45
2018-07-19T00:59:30.151Z,858.43
2018-07-19T01:00:30.026Z,858.41
2018-07-19T01:01:44.737Z,858.43
2018-07-19T01:02:29.782Z,858.42
2018-07-19T01:03:29.662Z,858.42
2018-07-19T01:04:29.543Z,858.41
2018-07-19T01:05:29.462Z,858.39
2018-07-19T01:06:29.295Z,858.40
2018-07-19T01:07:29.172Z,858.41
2018-07-19T01:08:29.050Z,858.39
2018-07-19T01:09:28.925Z,858.39
2018-07-19T01:10:28.806Z,858.38
2018-07-19T01:11:28.682Z,858.40
2018-07-19T01:12:28.562Z,858.42
2018-07-19T01:13:28.440Z,858.44
2018-07-19T01:14:28.317Z,858.40
2018-07-19T01:15:28.192Z,858.38
2018-07-19T01:16:28.073Z,858.38
2018-07-19T01:17:27.950Z,858.42
2018-07-19T01:18:27.825Z,858.44
2018-07-19T01:19:27.703Z,858.43
2018-07-19T01:20:27.580Z,858.47
2018-07-19T01:21:27.457Z,858.46
2018-07-19T01:22:27.339Z,858.44
2018-07-19T01:23:27.213Z,858.48
2018-07-19T01:24:27.091Z,858.47
2018-07-19T01:25:26.970Z,858.43
2018-07-19T01:26:26.846Z,858.43
2018-07-19T01:27:26.753Z,858.44
2018-07-19T01:28:26.602Z,858.44
2018-07-19T01:29:26.480Z,858.42
2018-07-19T01:30:26.357Z,858.41
2018-07-19T01:31:26.241Z,858.39
2018-07-19T01:32:26.113Z,858.42
2018-07-19T01:33:25.993Z,858.44
2018-07-19T01:34:25.871Z,858.40
2018-07-19T01:35:25.750Z,858.41
2018-07-19T01:36:25.625Z,858.43
2018-07-19T01:37:25.505Z,858.38
2018-07-19T01:38:25.383Z,858.38
2018-07-19T01:39:25.257Z,858.36
2018-07-19T01:40:25.132Z,858.34
2018-07-19T01:41:25.011Z,858.33
2018-07-19T01:42:24.891Z,858.32
2018-07-19T01:43:24.767Z,858.33
2018-07-19T01:44:24.644Z,858.35
2018-07-19T01:45:24.529Z,858.38
2018-07-19T01:46:24.401Z,858.35
2018-07-19T01:47:24.275Z,858.38
2018-07-19T01:48:24.155Z,858.41
2018-07-19T01:49:24.036Z,858.40
2018-07-19T01:50:23.908Z,858.39
2018-07-19T01:51:23.788Z,858.40
2018-07-19T01:52:23.666Z,858.40
2018-07-19T01:53:23.546Z,858.37
2018-07-19T01:54:23.423Z,858.34
2018-07-19T01:55:23.297Z,858.35
2018-07-19T01:56:23.176Z,858.32
2018-07-19T01:57:23.054Z,858.27
2018-07-19T01:58:22.944Z,858.26
2018-07-19T01:59:22.807Z,858.33
2018-07-19T02:00:22.686Z,858.29
2018-07-19T02:01:22.567Z,858.34
2018-07-19T02:02:22.443Z,858.31
2018-07-19T02:03:22.317Z,858.30
2018-07-19T02:04:22.196Z,858.35
2018-07-19T02:05:22.073Z,858.32
2018-07-19T02:06:21.951Z,858.29
2018-07-19T02:07:21.830Z,858.33
2018-07-19T02:08:21.705Z,858.35
2018-07-19T02:09:21.583Z,858.28
2018-07-19T02:10:21.461Z,858.28
2018-07-19T02:11:21.339Z,858.27
2018-07-19T02:12:21.213Z,858.27
2018-07-19T02:13:21.096Z,858.27
2018-07-19T02:14:20.972Z,858.30
2018-07-19T02:15:20.848Z,858.24
2018-07-19T02:16:20.728Z,858.19
2018-07-19T02:17:20.603Z,858.20
2018-07-19T02:18:20.483Z,858.21
2018-07-19T02:19:20.356Z,858.23
2018-07-19T02:20:20.237Z,858.22
2018-07-19T02:21:20.116Z,858.21
2018-07-19T02:22:19.991Z,858.23
2018-07-19T02:23:19.869Z,858.19
2018-07-19T02:24:19.747Z,858.21
2018-07-19T02:25:19.631Z,858.21
2018-07-19T02:26:19.500Z,858.23
2018-07-19T02:27:19.377Z,858.22
2018-07-19T02:28:19.259Z,858.19
2018-07-19T02:29:19.138Z,858.17
2018-07-19T02:30:19.011Z,858.18
2018-07-19T02:31:18.889Z,858.20
2018-07-19T02:32:18.766Z,858.22
2018-07-19T02:33:18.645Z,858.17
2018-07-19T02:34:18.523Z,858.19
2018-07-19T02:35:18.401Z,858.18
2018-07-19T02:36:18.280Z,858.13
2018-07-19T02:37:18.157Z,858.14
2018-07-19T02:38:18.036Z,858.09
2018-07-19T02:39:17.916Z,858.12
2018-07-19T02:40:17.788Z,858.13
2018-07-19T02:41:17.669Z,858.14
2018-07-19T02:42:17.548Z,858.11
2018-07-19T02:43:17.421Z,858.11
2018-07-19T02:44:17.308Z,858.10
2018-07-19T02:45:17.178Z,858.14
2018-07-19T02:46:17.059Z,858.12
2018-07-19T02:47:16.937Z,858.13
2018-07-19T02:48:16.815Z,858.07
2018-07-19T02:49:16.690Z,858.08
2018-07-19T02:50:16.566Z,858.05
2018-07-19T02:51:16.447Z,858.07
2018-07-19T02:52:16.323Z,858.01
2018-07-19T02:53:16.202Z,858.03
2018-07-19T02:54:16.081Z,858.05
2018-07-19T02:55:15.958Z,858.03
2018-07-19T02:56:15.835Z,858.03
2018-07-19T02:57:15.712Z,858.06
2018-07-19T02:58:15.589Z,858.04
2018-07-19T02:59:15.468Z,858.08
2018-07-19T03:00:15.347Z,858.04
2018-07-19T03:01:15.227Z,858.06
2018-07-19T03:02:15.190Z,858.00
2018-07-19T03:03:14.978Z,858.03
2018-07-19T03:04:14.860Z,858.03
2018-07-19T03:05:14.734Z,858.02
2018-07-19T03:06:14.611Z,858.07
2018-07-19T03:07:14.488Z,858.06
2018-07-19T03:08:14.368Z,858.05
2018-07-19T03:09:14.242Z,858.06
2018-07-19T03:10:14.120Z,858.04
2018-07-19T03:11:14.000Z,858.04
2018-07-19T03:12:13.877Z,857.99
2018-07-19T03:13:13.753Z,858.01
2018-07-19T03:14:13.631Z,858.01
2018-07-19T03:15:13.512Z,858.02
2018-07-19T03:16:13.388Z,858.00
2018-07-19T03:17:13.266Z,858.00
2018-07-19T03:18:13.142Z,858.00
2018-07-19T03:19:13.021Z,858.04
2018-07-19T03:20:12.900Z,858.05
2018-07-19T03:21:12.780Z,858.06
2018-07-19T03:22:12.653Z,858.03
2018-07-19T03:23:12.530Z,858.04
2018-07-19T03:24:12.408Z,858.03
2018-07-19T03:25:12.286Z,858.08
2018-07-19T03:26:12.164Z,858.07
2018-07-19T03:27:12.041Z,858.06
2018-07-19T03:28:11.920Z,858.04
2018-07-19T03:29:11.796Z,858.11
2018-07-19T03:30:11.676Z,858.07
2018-07-19T03:31:11.619Z,858.10
2018-07-19T03:32:11.457Z,858.11
2018-07-19T03:33:11.307Z,858.16
2018-07-19T03:34:11.183Z,858.13
2018-07-19T03:35:11.071Z,858.09
2018-07-19T03:36:10.940Z,858.12
2018-07-19T03:37:10.814Z,858.08
2018-07-19T03:38:10.694Z,858.09
2018-07-19T03:39:10.568Z,858.11
2018-07-19T03:40:10.494Z,858.15
2018-07-19T03:41:10.325Z,858.14
2018-07-19T03:42:10.206Z,858.18
2018-07-19T03:43:10.082Z,858.15
2018-07-19T03:44:09.959Z,858.14
2018-07-19T03:45:09.839Z,858.12
2018-07-19T03:46:09.711Z,858.13
2018-07-19T03:47:09.593Z,858.10
2018-07-19T03:48:09.469Z,858.10
2018-07-19T03:49:09.347Z,858.09
2018-07-19T03:50:09.228Z,858.12
2018-07-19T03:51:09.103Z,858.14
2018-07-19T03:52:08.979Z,858.14
2018-07-19T03:53:08.854Z,858.13
2018-07-19T03:54:08.730Z,858.13
2018-07-19T03:55:08.659Z,858.13
2018-07-19T03:56:08.487Z,858.15
2018-07-19T03:57:08.366Z,858.14
2018-07-19T03:58:08.240Z,858.08
2018-07-19T03:59:08.122Z,858.06
2018-07-19T04:00:07.996Z,858.08
2018-07-19T04:01:07.874Z,858.09
2018-07-19T04:02:07.754Z,858.05
2018-07-19T04:03:07.630Z,858.02
2018-07-19T04:04:07.509Z,858.02
2018-07-19T04:05:07.383Z,858.02
2018-07-19T04:06:07.263Z,858.01
2018-07-19T04:07:07.133Z,858.01
2018-07-19T04:08:07.015Z,858.03
2018-07-19T04:09:06.892Z,858.02
2018-07-19T04:10:06.767Z,858.00
2018-07-19T04:11:06.690Z,858.01
2018-07-19T04:12:06.522Z,858.01
2018-07-19T04:13:06.401Z,858.02
2018-07-19T04:14:06.275Z,858.02
2018-07-19T04:15:06.153Z,858.00
2018-07-19T04:16:06.032Z,858.00
2018-07-19T04:17:05.973Z,858.02
2018-07-19T04:18:05.786Z,858.01
2018-07-19T04:19:05.664Z,858.02
2018-07-19T04:20:05.542Z,858.01
2018-07-19T04:21:05.424Z,858.02
2018-07-19T04:22:05.292Z,858.03
2018-07-19T04:23:05.173Z,858.00
2018-07-19T04:24:05.049Z,858.00
2018-07-19T04:25:04.970Z,858.00
2018-07-19T04:26:04.805Z,858.02
2018-07-19T04:27:04.679Z,858.05
2018-07-19T04:28:04.555Z,858.02
2018-07-19T04:29:04.438Z,858.02
2018-07-19T04:30:04.311Z,858.03
2018-07-19T04:31:04.188Z,858.02
2018-07-19T04:32:04.079Z,858.00
2018-07-19T04:33:03.943Z,858.02
2018-07-19T04:34:03.821Z,858.03
2018-07-19T04:35:03.703Z,858.02
2018-07-19T04:36:03.576Z,858.03
2018-07-19T04:37:03.449Z,858.03
2018-07-19T04:38:03.328Z,858.02
2018-07-19T04:39:03.207Z,858.03
2018-07-19T04:40:03.084Z,858.08
2018-07-19T04:41:02.962Z,858.09
2018-07-19T04:42:02.840Z,858.08
2018-07-19T04:43:02.715Z,858.10
2018-07-19T04:44:02.594Z,858.09
2018-07-19T04:45:02.476Z,858.10
2018-07-19T04:46:02.348Z,858.11
2018-07-19T04:47:02.223Z,858.12
2018-07-19T04:48:02.105Z,858.12
2018-07-19T04:49:01.978Z,858.13
2018-07-19T04:50:01.856Z,858.15
2018-07-19T04:51:01.734Z,858.13
2018-07-19T04:52:01.613Z,858.09
2018-07-19T04:53:01.488Z,858.12
2018-07-19T04:54:01.370Z,858.10
2018-07-19T04:55:01.246Z,858.13
2018-07-19T04:56:01.124Z,858.12
2018-07-19T04:57:01.001Z,858.11
2018-07-19T04:58:00.878Z,858.14
2018-07-19T04:59:00.756Z,858.14
2018-07-19T05:00:00.632Z,858.15
2018-07-19T05:01:00.551Z,858.13
2018-07-19T05:02:00.418Z,858.13
2018-07-19T05:03:00.265Z,858.13
2018-07-19T05:04:00.148Z,858.16
2018-07-19T05:05:00.029Z,858.13
2018-07-19T05:05:59.902Z,858.10
2018-07-19T05:06:59.777Z,858.10
2018-07-19T05:07:59.657Z,858.13
2018-07-19T05:08:59.536Z,858.11
2018-07-19T05:09:59.414Z,858.12
2018-07-19T05:10:59.295Z,858.10
2018-07-19T05:11:59.173Z,858.10
2018-07-19T05:12:59.048Z,858.10
2018-07-19T05:13:58.967Z,858.10
2018-07-19T05:14:58.807Z,858.07
2018-07-19T05:15:58.685Z,858.04
2018-07-19T05:16:58.561Z,858.02
2018-07-19T05:17:58.440Z,858.06
2018-07-19T05:18:58.317Z,858.04
2018-07-19T05:19:58.200Z,858.05
2018-07-19T05:20:58.079Z,858.04
2018-07-19T05:21:57.956Z,858.06
2018-07-19T05:22:57.833Z,858.08
2018-07-19T05:23:57.711Z,858.06
2018-07-19T05:24:57.603Z,858.08
2018-07-19T05:25:57.468Z,858.08
2018-07-19T05:26:57.349Z,858.05
2018-07-19T05:27:57.227Z,858.08
2018-07-19T05:28:57.106Z,858.02
2018-07-19T05:29:56.984Z,858.02
2018-07-19T05:30:56.863Z,858.01
2018-07-19T05:31:56.762Z,857.99
2018-07-19T05:32:56.622Z,858.01
2018-07-19T05:33:56.502Z,858.00
2018-07-19T05:34:56.382Z,858.01
2018-07-19T05:35:56.259Z,858.01
2018-07-19T05:36:56.136Z,857.99
2018-07-19T05:37:56.018Z,857.99
2018-07-19T05:38:55.895Z,858.00
2018-07-19T05:39:55.774Z,857.97
2018-07-19T05:40:55.655Z,857.96
2018-07-19T05:41:55.560Z,857.96
2018-07-19T05:42:55.410Z,857.99
2018-07-19T05:43:55.293Z,857.98
2018-07-19T05:44:55.170Z,857.95
2018-07-19T05:45:55.050Z,857.96
2018-07-19T05:46:54.928Z,857.95
2018-07-19T05:47:54.810Z,857.94
2018-07-19T05:48:54.687Z,858.00
2018-07-19T05:49:54.569Z,857.98
2018-07-19T05:50:54.449Z,857.97
2018-07-19T05:51:54.327Z,857.96
2018-07-19T05:52:54.206Z,857.97
2018-07-19T05:53:54.089Z,857.96
2018-07-19T05:54:53.969Z,857.91
2018-07-19T05:55:53.845Z,857.95
2018-07-19T05:56:53.724Z,857.93
2018-07-19T05:57:53.605Z,857.94
2018-07-19T05:58:53.487Z,857.96
2018-07-19T05:59:53.365Z,857.93
2018-07-19T06:00:53.243Z,857.92
2018-07-19T06:01:53.124Z,857.92
2018-07-19T06:02:53.005Z,857.91
2018-07-19T06:03:52.884Z,857.90
2018-07-19T06:04:52.763Z,857.88
2018-07-19T06:05:52.648Z,857.86
2018-07-19T06:06:52.523Z,857.88
2018-07-19T06:07:52.405Z,857.83
2018-07-19T06:08:52.283Z,857.81
2018-07-19T06:09:52.161Z,857.80
2018-07-19T06:10:52.041Z,857.83
2018-07-19T06:11:51.926Z,857.81
2018-07-19T06:12:51.800Z,857.82
2018-07-19T06:13:51.684Z,857.82
2018-07-19T06:14:51.562Z,857.80
2018-07-19T06:15:51.443Z,857.81
2018-07-19T06:16:51.323Z,857.82
2018-07-19T06:17:51.202Z,857.84
2018-07-19T06:18:51.084Z,857.83
2018-07-19T06:19:50.963Z,857.81
2018-07-19T06:20:50.845Z,857.81
2018-07-19T06:21:50.724Z,857.82
2018-07-19T06:22:50.600Z,857.80
2018-07-19T06:23:50.517Z,857.79
2018-07-19T06:24:50.363Z,857.79
2018-07-19T06:25:50.242Z,857.77
2018-07-19T06:26:50.125Z,857.76
2018-07-19T06:27:50.008Z,857.79
2018-07-19T06:28:49.891Z,857.82
2018-07-19T06:29:49.772Z,857.83
2018-07-19T06:30:49.645Z,857.85
2018-07-19T06:31:49.525Z,857.84
2018-07-19T06:32:49.409Z,857.89
2018-07-19T06:33:49.287Z,857.85
2018-07-19T06:34:49.168Z,857.87
2018-07-19T06:35:49.049Z,857.89
2018-07-19T06:36:48.927Z,857.88
2018-07-19T06:37:48.808Z,857.90
2018-07-19T06:38:48.688Z,857.86
2018-07-19T06:39:48.571Z,857.87
2018-07-19T06:40:48.449Z,857.89
2018-07-19T06:41:48.327Z,857.89
2018-07-19T06:42:48.209Z,857.88
2018-07-19T06:43:48.089Z,857.87
2018-07-19T06:44:49.817Z,857.90
2018-07-19T06:45:47.852Z,857.88
2018-07-19T06:46:47.730Z,857.87
2018-07-19T06:47:47.613Z,857.88
2018-07-19T06:48:47.489Z,857.88
2018-07-19T06:49:47.371Z,857.90
2018-07-19T06:50:47.255Z,857.87
2018-07-19T06:51:47.132Z,857.86
2018-07-19T06:52:47.013Z,857.82
2018-07-19T06:53:46.896Z,857.84
2018-07-19T06:54:46.780Z,857.81
2018-07-19T06:55:46.655Z,857.84
2018-07-19T06:56:46.539Z,857.82
2018-07-19T06:57:46.422Z,857.83
2018-07-19T06:58:46.301Z,857.83
2018-07-19T06:59:46.181Z,857.80
2018-07-19T07:00:46.063Z,857.81
2018-07-19T07:01:45.945Z,857.82
2018-07-19T07:02:45.822Z,857.84
2018-07-19T07:03:45.706Z,857.83
2018-07-19T07:04:45.584Z,857.85
2018-07-19T07:05:45.465Z,857.83
2018-07-19T07:06:45.349Z,857.83
2018-07-19T07:07:45.444Z,857.83
2018-07-19T07:08:45.112Z,857.85
2018-07-19T07:09:44.992Z,857.84
2018-07-19T07:10:44.871Z,857.86
2018-07-19T07:11:44.757Z,857.84
2018-07-19T07:12:44.634Z,857.82
2018-07-19T07:13:44.516Z,857.82
2018-07-19T07:14:44.407Z,857.80
2018-07-19T07:15:44.281Z,857.81
2018-07-19T07:16:44.159Z,857.80
2018-07-19T07:17:44.043Z,857.81
2018-07-19T07:18:43.921Z,857.82
2018-07-19T07:19:43.854Z,857.81
2018-07-19T07:20:43.713Z,857.80
2018-07-19T07:21:43.571Z,857.82
2018-07-19T07:22:43.454Z,857.80
2018-07-19T07:23:43.330Z,857.83
2018-07-19T07:24:43.212Z,857.78
2018-07-19T07:25:43.092Z,857.78
2018-07-19T07:26:42.973Z,857.77
2018-07-19T07:27:42.856Z,857.72
2018-07-19T07:28:42.735Z,857.74
2018-07-19T07:29:42.619Z,857.79
2018-07-19T07:30:42.500Z,857.75
2018-07-19T07:31:42.384Z,857.71
2018-07-19T07:32:42.265Z,857.74
2018-07-19T07:33:42.145Z,857.74
2018-07-19T07:34:42.028Z,857.71
2018-07-19T07:35:41.911Z,857.76
2018-07-19T07:36:41.791Z,857.76
2018-07-19T07:37:41.673Z,857.73
2018-07-19T07:38:41.554Z,857.75
2018-07-19T07:39:41.438Z,857.73
2018-07-19T07:40:41.318Z,857.72
2018-07-19T07:41:41.200Z,857.69
2018-07-19T07:42:41.080Z,857.71
2018-07-19T07:43:40.967Z,857.71
2018-07-19T07:44:40.847Z,857.75
2018-07-19T07:45:40.727Z,857.74
2018-07-19T07:46:40.609Z,857.78
2018-07-19T07:47:40.490Z,857.75
2018-07-19T07:48:40.375Z,857.74
2018-07-19T07:49:40.258Z,857.74
2018-07-19T07:50:40.138Z,857.79
2018-07-19T07:51:40.020Z,857.75
2018-07-19T07:52:39.908Z,857.71
2018-07-19T07:53:39.783Z,857.71
2018-07-19T07:54:39.667Z,857.74
2018-07-19T07:55:39.546Z,857.75
2018-07-19T07:56:39.432Z,857.69
2018-07-19T07:57:39.316Z,857.71
2018-07-19T07:58:39.195Z,857.74
2018-07-19T07:59:39.081Z,857.68
2018-07-19T08:00:38.960Z,857.68
2018-07-19T08:01:38.843Z,857.67
2018-07-19T08:02:38.725Z,857.69
2018-07-19T08:03:38.608Z,857.67
2018-07-19T08:04:38.490Z,857.64
2018-07-19T08:05:38.374Z,857.68
2018-07-19T08:06:38.256Z,857.61
2018-07-19T08:07:38.139Z,857.61
2018-07-19T08:08:38.033Z,857.58
2018-07-19T08:09:37.905Z,857.62
2018-07-19T08:10:37.786Z,857.59
2018-07-19T08:11:37.669Z,857.60
2018-07-19T08:12:37.555Z,857.59
2018-07-19T08:13:37.434Z,857.62
2018-07-19T08:14:37.318Z,857.60
2018-07-19T08:15:37.381Z,857.61
2018-07-19T08:16:37.082Z,857.62
2018-07-19T08:17:36.967Z,857.61
2018-07-19T08:18:36.850Z,857.61
2018-07-19T08:19:36.733Z,857.60
2018-07-19T08:20:36.615Z,857.63
2018-07-19T08:21:36.516Z,857.59
2018-07-19T08:22:36.736Z,857.57
2018-07-19T08:23:36.266Z,857.58
2018-07-19T08:24:36.148Z,857.58
2018-07-19T08:25:36.033Z,857.57
2018-07-19T08:26:35.989Z,857.62
2018-07-19T08:27:35.797Z,857.56
2018-07-19T08:28:35.679Z,857.60
2018-07-19T08:29:35.574Z,857.60
2018-07-19T08:30:35.448Z,857.60
2018-07-19T08:31:35.331Z,857.60
2018-07-19T08:32:35.217Z,857.59
2018-07-19T08:33:35.096Z,857.57
2018-07-19T08:34:34.983Z,857.53
2018-07-19T08:35:34.870Z,857.59
2018-07-19T08:36:34.748Z,857.57
2018-07-19T08:37:34.631Z,857.54
2018-07-19T08:38:34.513Z,857.54
2018-07-19T08:39:34.399Z,857.56
2018-07-19T08:40:34.282Z,857.53
2018-07-19T08:41:34.168Z,857.57
2018-07-19T08:42:34.048Z,857.57
2018-07-19T08:43:33.933Z,857.62
2018-07-19T08:44:33.815Z,857.59
2018-07-19T08:45:33.700Z,857.59
2018-07-19T08:46:33.583Z,857.57
2018-07-19T08:47:33.467Z,857.61
2018-07-19T08:48:33.349Z,857.58
2018-07-19T08:49:33.233Z,857.55
2018-07-19T08:50:33.117Z,857.55
2018-07-19T08:51:33.015Z,857.57
2018-07-19T08:52:32.882Z,857.55
2018-07-19T08:53:32.768Z,857.56
2018-07-19T08:54:32.652Z,857.55
2018-07-19T08:55:32.535Z,857.55
2018-07-19T08:56:32.473Z,857.55
2018-07-19T08:57:32.303Z,857.59
2018-07-19T08:58:32.188Z,857.56
2018-07-19T08:59:32.067Z,857.59
2018-07-19T09:00:31.953Z,857.59
2018-07-19T09:01:31.837Z,857.60
2018-07-19T09:02:31.723Z,857.59
2018-07-19T09:03:31.609Z,857.59
2018-07-19T09:04:31.487Z,857.60
2018-07-19T09:05:31.374Z,857.55
2018-07-19T09:06:31.255Z,857.55
2018-07-19T09:07:31.142Z,857.57
2018-07-19T09:08:31.025Z,857.56
2018-07-19T09:09:30.907Z,857.58
2018-07-19T09:10:30.794Z,857.52
2018-07-19T09:11:30.677Z,857.55
2018-07-19T09:12:30.559Z,857.55
2018-07-19T09:13:30.444Z,857.52
2018-07-19T09:14:30.327Z,857.50
2018-07-19T09:15:30.213Z,857.49
2018-07-19T09:16:30.097Z,857.50
2018-07-19T09:17:29.985Z,857.49
2018-07-19T09:18:29.864Z,857.51
2018-07-19T09:19:29.804Z,857.50
2018-07-19T09:20:29.635Z,857.46
2018-07-19T09:21:29.521Z,857.43
2018-07-19T09:22:29.404Z,857.47
2018-07-19T09:23:29.292Z,857.43
2018-07-19T09:24:29.176Z,857.43
2018-07-19T09:25:29.058Z,857.43
2018-07-19T09:26:28.943Z,857.41
2018-07-19T09:27:28.826Z,857.44
2018-07-19T09:28:28.714Z,857.40
2018-07-19T09:29:28.600Z,857.41
2018-07-19T09:30:28.482Z,857.42
2018-07-19T09:31:28.366Z,857.40
2018-07-19T09:32:28.249Z,857.40
2018-07-19T09:33:28.139Z,857.37
2018-07-19T09:34:28.018Z,857.41
2018-07-19T09:35:27.902Z,857.40
2018-07-19T09:36:27.799Z,857.40
2018-07-19T09:37:27.673Z,857.43
2018-07-19T09:38:27.596Z,857.40
2018-07-19T09:39:27.442Z,857.41
2018-07-19T09:40:27.326Z,857.37
2018-07-19T09:41:27.214Z,857.41
2018-07-19T09:42:27.095Z,857.43
2018-07-19T09:43:26.986Z,857.36
2018-07-19T09:44:26.864Z,857.37
2018-07-19T09:45:26.751Z,857.39
2018-07-19T09:46:26.637Z,857.36
2018-07-19T09:47:26.520Z,857.35
2018-07-19T09:48:26.406Z,857.35
2018-07-19T09:49:26.288Z,857.36
2018-07-19T09:50:26.174Z,857.33
2018-07-19T09:51:26.060Z,857.28
2018-07-19T09:52:25.948Z,857.31
2018-07-19T09:53:25.829Z,857.28
2018-07-19T09:54:25.713Z,857.25
2018-07-19T09:55:25.601Z,857.27
2018-07-19T09:56:25.487Z,857.22
2018-07-19T09:57:25.369Z,857.21
2018-07-19T09:58:25.253Z,857.23
2018-07-19T09:59:25.170Z,857.20
2018-07-19T10:00:25.108Z,857.21
2018-07-19T10:01:24.913Z,857.22
2018-07-19T10:02:24.795Z,857.20
2018-07-19T10:03:24.684Z,857.17
2018-07-19T10:04:24.566Z,857.17
2018-07-19T10:05:24.450Z,857.18
2018-07-19T10:06:24.337Z,857.18
2018-07-19T10:07:24.221Z,857.16
2018-07-19T10:08:24.109Z,857.20
2018-07-19T10:09:24.888Z,857.18
2018-07-19T10:10:23.887Z,857.22
2018-07-19T10:11:23.765Z,857.17
2018-07-19T10:12:23.651Z,857.20
2018-07-19T10:13:23.592Z,857.17
2018-07-19T10:14:23.423Z,857.18
2018-07-19T10:15:23.317Z,857.21
2018-07-19T10:16:23.195Z,857.19
2018-07-19T10:17:23.111Z,857.19
2018-07-19T10:18:23.841Z,857.18
2018-07-19T10:19:22.849Z,857.17
2018-07-19T10:20:22.736Z,857.22
2018-07-19T10:21:22.621Z,857.24
2018-07-19T10:22:22.515Z,857.18
2018-07-19T10:23:22.435Z,857.13
2018-07-19T10:24:22.895Z,857.11
2018-07-19T10:25:22.164Z,857.09
2018-07-19T10:26:22.051Z,857.14
2018-07-19T10:27:21.937Z,857.09
2018-07-19T10:28:21.825Z,857.12
2018-07-19T10:29:21.708Z,857.10
2018-07-19T10:30:21.593Z,857.11
2018-07-19T10:31:21.859Z,857.10
2018-07-19T10:32:21.518Z,857.11
2018-07-19T10:33:21.261Z,857.09
2018-07-19T10:34:21.141Z,857.07
2018-07-19T10:35:21.025Z,857.07
2018-07-19T10:36:20.911Z,857.06
2018-07-19T10:37:20.805Z,857.08
2018-07-19T10:38:20.685Z,857.04
2018-07-19T10:39:20.569Z,857.01
2018-07-19T10:40:20.462Z,857.00
2018-07-19T10:41:20.343Z,857.03
2018-07-19T10:42:20.231Z,857.03
2018-07-19T10:43:20.118Z,857.01
2018-07-19T10:44:20.058Z,856.99
2018-07-19T10:45:19.981Z,857.01
2018-07-19T10:46:19.785Z,856.98
2018-07-19T10:47:19.694Z,856.97
2018-07-19T10:48:19.650Z,856.96
2018-07-19T10:49:19.451Z,856.99
2018-07-19T10:50:19.327Z,857.02
2018-07-19T10:51:19.214Z,856.99
2018-07-19T10:52:19.151Z,856.97
2018-07-19T10:53:18.987Z,856.97
2018-07-19T10:54:18.898Z,856.98
2018-07-19T10:55:18.768Z,857.02
2018-07-19T10:56:18.673Z,856.98
2018-07-19T10:57:18.571Z,857.00
2018-07-19T10:58:18.640Z,856.95
2018-07-19T10:59:18.376Z,856.96
2018-07-19T11:00:18.339Z,856.96
2018-07-19T11:01:18.087Z,856.99
2018-07-19T11:02:17.975Z,856.96
2018-07-19T11:03:17.932Z,856.93
2018-07-19T11:04:17.755Z,856.95
2018-07-19T11:05:17.644Z,856.95
2018-07-19T11:06:17.701Z,856.90
2018-07-19T11:07:17.436Z,856.93
2018-07-19T11:08:17.304Z,856.91
2018-07-19T11:09:17.217Z,856.88
2018-07-19T11:10:19.911Z,856.97
2018-07-19T11:11:16.999Z,856.96
2018-07-19T11:12:17.064Z,856.97
2018-07-19T11:13:16.754Z,856.95
2018-07-19T11:14:16.627Z,856.92
2018-07-19T11:15:16.513Z,856.89
2018-07-19T11:16:16.399Z,856.86
2018-07-19T11:17:16.288Z,856.88
2018-07-19T11:18:16.176Z,856.88
2018-07-19T11:19:16.063Z,856.87
2018-07-19T11:20:15.949Z,856.85
2018-07-19T11:21:15.841Z,856.81
2018-07-19T11:22:16.813Z,856.84
2018-07-19T11:23:15.618Z,856.86
2018-07-19T11:24:15.504Z,856.79
2018-07-19T11:25:15.392Z,856.77
2018-07-19T11:26:15.281Z,856.81
2018-07-19T11:27:15.174Z,856.72
2018-07-19T11:28:15.073Z,856.78
2018-07-19T11:29:14.952Z,856.81
2018-07-19T11:30:14.842Z,856.82
2018-07-19T11:31:14.728Z,856.75
2018-07-19T11:32:14.618Z,856.73
2018-07-19T11:33:14.504Z,856.78
2018-07-19T11:34:15.666Z,856.78
2018-07-19T11:35:16.974Z,856.76
2018-07-19T11:36:14.173Z,856.77
2018-07-19T11:37:15.050Z,856.76
2018-07-19T11:38:13.949Z,856.77
2018-07-19T11:39:13.840Z,856.75
2018-07-19T11:40:13.730Z,856.77
2018-07-19T11:41:13.624Z,856.76
2018-07-19T11:42:13.510Z,856.79
2018-07-19T11:43:13.400Z,856.79
2018-07-19T11:44:13.295Z,856.77
2018-07-19T11:45:13.183Z,856.70
2018-07-19T11:46:13.072Z,856.74
2018-07-19T11:47:12.961Z,856.74
2018-07-19T11:48:12.853Z,856.74
2018-07-19T11:49:12.742Z,856.74
2018-07-19T11:50:12.629Z,856.68
2018-07-19T11:51:12.524Z,856.72
2018-07-19T11:52:12.414Z,856.68
2018-07-19T11:53:12.457Z,856.73
2018-07-19T11:54:12.193Z,856.72
2018-07-19T11:55:12.783Z,856.67
2018-07-19T11:56:11.972Z,856.70
2018-07-19T11:57:11.891Z,856.66
2018-07-19T11:58:11.758Z,856.63
2018-07-19T11:59:11.643Z,856.69
2018-07-19T12:00:11.532Z,856.67
2018-07-19T12:01:13.929Z,856.66
2018-07-19T12:02:11.313Z,856.73
2018-07-19T12:03:11.207Z,856.74
2018-07-19T12:04:11.855Z,856.66
2018-07-19T12:05:13.933Z,856.69
2018-07-19T12:06:10.877Z,856.72
2018-07-19T12:07:10.770Z,856.66
2018-07-19T12:08:10.660Z,856.66
2018-07-19T12:09:10.546Z,856.65
2018-07-19T12:10:10.442Z,856.70
2018-07-19T12:11:10.329Z,856.65
2018-07-19T12:12:10.220Z,856.68
2018-07-19T12:13:11.290Z,856.61
2018-07-19T12:14:10.001Z,856.65
2018-07-19T12:15:12.432Z,856.63
2018-07-19T12:16:10.433Z,856.63
2018-07-19T12:17:09.671Z,856.60
2018-07-19T12:18:09.596Z,856.64
2018-07-19T12:19:09.452Z,856.56
2018-07-19T12:20:09.343Z,856.55
2018-07-19T12:21:09.232Z,856.52
2018-07-19T12:22:09.128Z,856.58
2018-07-19T12:23:09.023Z,856.57
2018-07-19T12:24:08.906Z,856.55
2018-07-19T12:25:08.794Z,856.51
2018-07-19T12:26:08.684Z,856.54
2018-07-19T12:27:08.577Z,856.56